Time;durP1;ratioP1;P1;durP2;ratioP2;P2;SDS_P1;SDS_P2;PMS_P1;PMS_P2;Temp;Humidity;BMP_temperature;BMP_pressure;BME280_temperature;BME280_humidity;BME280_pressure;Samples;Min_cycle;Max_cycle;Signal;HPM_P1;HPM_P2
2022/03/22 00:04:02;;;;;;;;;;;;;;;9.75;64.75;103032.16;10642443;27;19919;-63
2022/03/22 00:09:23;;;;;;;;;;;;;;;9.67;64.39;103028.88;10645830;27;19923;-63
2022/03/22 00:14:45;;;;;;;;;;;;;;;9.64;64.90;103028.94;10637074;27;19919;-63
2022/03/22 00:20:27;;;;;;;;;;;;;;;9.64;64.81;103028.94;10637950;27;19926;-63
2022/03/22 00:25:49;;;;;;;;;;;;;;;9.55;64.51;103032.63;10603336;27;20018;-63
2022/03/22 00:31:11;;;;;;;;;;;;;;;9.50;64.57;103030.22;10642886;27;19923;-64
2022/03/22 00:36:34;;;;;;;;;;;;;;;9.42;64.52;103029.53;10642464;27;19923;-64
2022/03/22 00:41:55;;;;;;;;;;;;;;;9.36;64.90;103033.13;10626234;27;20023;-64
2022/03/22 00:47:18;;;;;;;;;;;;;;;9.32;65.23;103028.88;10636878;27;19972;-64
2022/03/22 00:52:40;;;;;;;;;;;;;;;9.27;64.48;103028.16;10645321;27;19919;-64
2022/03/22 00:58:03;;;;;;;;;;;;;;;9.19;64.78;103024.88;10635582;27;19919;-64
2022/03/22 01:03:25;;;;;;;;;;;;;;;9.18;64.81;103023.16;10644236;27;19926;-64
2022/03/22 01:08:47;;;;;;;;;;;;;;;9.12;64.73;103033.72;10616434;27;19919;-63
2022/03/22 01:14:08;;;;;;;;;;;;;;;9.08;64.92;103028.66;10613343;27;19930;-64
2022/03/22 01:19:30;;;;;;;;;;;;;;;9.02;64.75;103026.16;10628210;27;19923;-64
2022/03/22 01:24:52;;;;;;;;;;;;;;;8.99;64.70;103028.84;10630194;27;19919;-64
2022/03/22 01:30:15;;;;;;;;;;;;;;;8.95;64.82;103024.63;10635290;27;19933;-63
2022/03/22 01:35:37;;;;;;;;;;;;;;;8.92;64.91;103014.28;10643217;27;19942;-64
2022/03/22 01:40:58;;;;;;;;;;;;;;;8.88;65.46;103016.06;10610697;27;20271;-64
2022/03/22 01:46:23;;;;;;;;;;;;;;;8.83;65.20;103015.34;10642666;27;20839;-64
2022/03/22 01:51:48;;;;;;;;;;;;;;;8.83;65.19;103014.47;10612111;27;19930;-63
2022/03/22 01:57:10;;;;;;;;;;;;;;;8.80;65.23;103010.19;10599731;27;19927;-64
2022/03/22 02:08:13;;;;;;;27.40;16.00;;;;;;;8.75;64.83;103009.44;10634636;27;20074;-63
2022/03/22 02:13:35;;;;;;;29.58;17.40;;;;;;;8.73;65.43;103008.59;10608480;27;20062;-63
2022/03/22 02:18:57;;;;;;;25.88;16.48;;;;;;;8.69;64.88;103007.00;10633702;27;20398;-63
2022/03/22 02:24:18;;;;;;;27.50;16.33;;;;;;;8.62;65.62;103005.41;10630126;27;20046;-63
2022/03/22 02:29:40;;;;;;;25.42;16.58;;;;;;;8.60;65.59;102999.38;10626701;27;20082;-63
2022/03/22 02:35:04;;;;;;;24.33;15.95;;;;;;;8.58;65.43;102996.88;10614069;27;20066;-64
2022/03/22 02:40:27;;;;;;;27.95;17.40;;;;;;;8.53;65.73;102998.69;10640940;27;20274;-63
2022/03/22 02:45:49;;;;;;;28.98;18.10;;;;;;;8.48;65.60;103000.53;10628419;27;20491;-64
2022/03/22 02:51:11;;;;;;;24.95;17.40;;;;;;;8.46;65.93;103002.31;10650464;27;20054;-63
2022/03/22 02:56:33;;;;;;;29.70;17.40;;;;;;;8.42;65.97;103005.88;10614560;27;20050;-63
2022/03/22 03:01:57;;;;;;;29.17;17.63;;;;;;;8.38;65.35;103005.06;10623390;27;20047;-64
2022/03/22 03:07:19;;;;;;;27.20;16.33;;;;;;;8.35;65.42;103010.34;10646780;27;20054;-63
2022/03/22 03:12:41;;;;;;;34.08;16.77;;;;;;;8.32;65.68;103017.31;10638877;27;20066;-63
2022/03/22 03:18:03;;;;;;;27.92;17.00;;;;;;;8.31;65.50;103013.00;10648829;27;20054;-63
2022/03/22 03:23:24;;;;;;;24.88;16.52;;;;;;;8.26;65.51;103009.69;10631208;27;20055;-63
2022/03/22 03:28:46;;;;;;;30.77;17.30;;;;;;;8.20;65.83;103009.78;10632490;27;20042;-63
2022/03/22 03:34:09;;;;;;;28.13;17.58;;;;;;;8.17;65.95;103015.03;10639472;27;20054;-63
2022/03/22 03:39:30;;;;;;;29.83;17.17;;;;;;;8.13;65.79;103019.41;10648996;27;20044;-63
2022/03/22 03:50:32;;;;;;;27.70;17.80;;;;;;;8.02;66.48;103012.69;10637359;27;20061;-63
2022/03/22 03:55:54;;;;;;;28.13;17.27;;;;;;;8.00;66.19;103020.53;10610906;27;20046;-63
2022/03/22 04:01:15;;;;;;;26.65;17.45;;;;;;;7.99;65.99;103020.56;10612327;27;20047;-63
2022/03/22 04:06:37;;;;;;;29.05;17.00;;;;;;;7.93;65.88;103024.13;10624755;27;20123;-63
2022/03/22 04:11:59;;;;;;;27.48;17.13;;;;;;;7.87;66.54;103021.66;10618254;27;20074;-64
2022/03/22 04:17:21;;;;;;;27.55;17.45;;;;;;;7.87;66.20;103028.56;10613971;27;20124;-64
2022/03/22 04:22:43;;;;;;;26.67;17.77;;;;;;;7.82;66.27;103027.81;10645415;27;20084;-63
2022/03/22 04:34:02;;;;;;;29.45;18.42;;;;;;;7.75;66.88;103032.25;10639472;27;20057;-63
2022/03/22 04:39:25;;;;;;;27.65;17.13;;;;;;;7.74;66.45;103034.88;10636965;27;20128;-64
2022/03/22 04:44:46;;;;;;;32.42;17.77;;;;;;;7.70;66.91;103034.06;10624708;27;20047;-63
2022/03/22 04:50:08;;;;;;;28.27;17.92;;;;;;;7.67;67.54;103038.47;10631591;27;20047;-63
2022/03/22 05:01:12;;;;;;;28.45;17.10;;;;;;;7.61;67.68;103035.97;10618057;27;20414;-63
2022/03/22 05:06:37;;;;;;;26.17;17.17;;;;;;;7.56;67.45;103039.53;10644248;27;20043;-63
2022/03/22 05:11:59;;;;;;;30.98;18.05;;;;;;;7.53;67.48;103045.63;10635005;27;20066;-64
2022/03/22 05:17:23;;;;;;;34.95;17.92;;;;;;;7.50;67.45;103045.69;10644265;27;20062;-64
2022/03/22 05:22:45;;;;;;;28.73;17.85;;;;;;;7.50;67.64;103045.69;10609543;27;20542;-63
2022/03/22 05:28:06;;;;;;;32.13;19.67;;;;;;;7.52;67.62;103059.50;10604499;27;20038;-64
2022/03/22 05:33:28;;;;;;;27.83;17.77;;;;;;;7.51;67.41;103060.38;10605750;27;20431;-63
2022/03/22 05:38:52;;;;;;;40.83;18.77;;;;;;;7.56;66.99;103057.69;10627220;27;20061;-63
2022/03/22 05:44:13;;;;;;;33.05;17.73;;;;;;;7.56;66.82;103060.28;10655422;27;20046;-63
2022/03/22 05:49:38;;;;;;;33.58;18.13;;;;;;;7.53;67.10;103063.81;10647169;27;20519;-63
2022/03/22 05:55:00;;;;;;;32.03;17.60;;;;;;;7.52;67.32;103069.88;10656715;27;20069;-63
2022/03/22 06:00:22;;;;;;;30.70;16.73;;;;;;;7.55;67.80;103068.94;10623486;27;20047;-63
2022/03/22 06:05:44;;;;;;;27.88;17.27;;;;;;;7.58;67.76;103064.56;10627517;27;20055;-63
2022/03/22 06:11:06;;;;;;;30.90;18.10;;;;;;;7.62;67.57;103071.44;10642968;27;20509;-63
2022/03/22 06:16:28;;;;;;;31.02;18.13;;;;;;;7.69;67.32;103070.47;10639240;27;20402;-63
2022/03/22 06:21:49;;;;;;;32.97;19.20;;;;;;;7.74;67.92;103073.81;10619680;27;20054;-63
2022/03/22 06:27:13;;;;;;;31.65;18.33;;;;;;;7.80;68.14;103074.56;10647804;27;20053;-64
2022/03/22 06:32:56;;;;;;;31.92;18.45;;;;;;;7.94;66.67;103084.72;10647400;27;20129;-63
2022/03/22 06:38:18;;;;;;;34.67;17.48;;;;;;;8.07;66.33;103091.41;10633998;27;20395;-63
2022/03/22 06:43:39;;;;;;;32.38;18.25;;;;;;;8.20;66.81;103087.72;10621319;27;20047;-63
2022/03/22 06:49:01;;;;;;;29.73;18.95;;;;;;;8.30;65.23;103099.63;10602973;27;20062;-64
2022/03/22 06:54:23;;;;;;;34.95;17.88;;;;;;;8.42;65.34;103099.44;10648730;27;20080;-63
2022/03/22 06:59:45;;;;;;;30.63;17.98;;;;;;;8.57;64.66;103104.31;10611939;27;20143;-63
2022/03/22 07:05:08;;;;;;;33.67;17.70;;;;;;;8.68;64.24;103103.19;10598536;27;20051;-63
2022/03/22 07:10:33;;;;;;;32.40;17.83;;;;;;;8.74;64.03;103103.94;10648443;27;20050;-63
2022/03/22 07:15:54;;;;;;;30.45;18.15;;;;;;;8.78;65.10;103110.78;10605124;27;20126;-63
2022/03/22 07:21:16;;;;;;;33.22;18.98;;;;;;;8.89;63.89;103108.81;10607651;27;20503;-63
2022/03/22 07:26:40;;;;;;;30.02;18.08;;;;;;;9.01;63.52;103108.56;10613191;27;20414;-64
2022/03/22 07:32:02;;;;;;;30.38;17.20;;;;;;;9.13;64.44;103113.50;10622144;27;20321;-63
2022/03/22 07:37:24;;;;;;;31.65;18.83;;;;;;;9.27;62.79;103110.56;10646772;27;20042;-63
2022/03/22 07:42:48;;;;;;;38.15;18.55;;;;;;;9.40;63.02;103115.47;10637765;27;20061;-63
2022/03/22 07:48:10;;;;;;;32.80;18.80;;;;;;;9.54;63.49;103116.00;10645815;27;20043;-63
2022/03/22 07:53:32;;;;;;;;;;;;;;;9.61;64.57;103127.97;10639255;27;20635;-63
2022/03/22 07:58:53;;;;;;;;;;;;;;;9.74;63.42;103119.84;10635677;27;19927;-63
2022/03/22 08:04:15;;;;;;;;;;;;;;;9.88;63.38;103122.94;10647805;27;19935;-63
2022/03/22 08:09:37;;;;;;;;;;;;;;;9.93;64.31;103130.66;10637483;27;19934;-63
2022/03/22 08:14:58;;;;;;;;;;;;;;;10.04;64.18;103133.91;10646067;27;19923;-64
2022/03/22 08:20:20;;;;;;;;;;;;;;;10.11;64.30;103138.03;10638028;27;19926;-64
2022/03/22 08:25:48;;;;;;;;;;;;;;;10.22;64.48;103134.25;10637716;27;20275;-63
2022/03/22 08:31:13;;;;;;;;;;;;;;;10.33;64.42;103137.44;10646834;27;19929;-63
2022/03/22 08:36:35;;;;;;;;;;;;;;;10.49;63.19;103137.88;10631304;27;19975;-63
2022/03/22 08:41:56;;;;;;;;;;;;;;;10.60;63.70;103131.47;10644793;27;20041;-64
2022/03/22 08:47:18;;;;;;;;;;;;;;;10.77;62.65;103130.06;10637590;27;19934;-64
2022/03/22 08:52:40;;;;;;;;;;;;;;;10.90;63.56;103126.25;10636071;27;20514;-64
2022/03/22 08:58:06;;;;;;;;;;;;;;;10.98;63.63;103134.69;10622721;27;20289;-64
2022/03/22 09:03:31;;;;;;;;;;;;;;;11.15;63.07;103127.22;10620022;27;19926;-63
2022/03/22 09:08:55;;;;;;;;;;;;;;;11.24;64.27;103126.09;10601172;27;19930;-64
2022/03/22 09:14:16;;;;;;;;;;;;;;;11.38;63.47;103123.91;10633503;27;20009;-63
2022/03/22 09:19:39;;;;;;;;;;;;;;;11.51;63.62;103131.28;10635498;27;19920;-63
2022/03/22 09:25:20;;;;;;;;;;;;;;;11.80;61.72;103128.63;10632770;27;19923;-64
2022/03/22 09:30:42;;;;;;;;;;;;;;;11.93;62.47;103127.34;10634429;27;19926;-63
2022/03/22 09:36:04;;;;;;;;;;;;;;;12.05;62.41;103125.13;10643032;27;20275;-63
2022/03/22 09:41:26;;;;;;;;;;;;;;;12.28;61.98;103120.00;10633967;27;19926;-64
2022/03/22 09:46:49;;;;;;;;;;;;;;;12.41;61.79;103121.25;10641988;27;19923;-64
2022/03/22 09:52:12;;;;;;;;;;;;;;;12.57;61.68;103125.88;10644443;27;19927;-64
2022/03/22 09:57:33;;;;;;;;;;;;;;;12.89;59.04;103116.81;10633015;27;19919;-64
2022/03/22 10:02:55;;;;;;;;;;;;;;;13.06;59.38;103110.09;10621550;27;19923;-64
2022/03/22 10:08:16;;;;;;;;;;;;;;;13.16;60.25;103106.19;10634580;27;19934;-62
2022/03/22 10:13:54;;;;;;;;;;;;;;;13.17;61.65;103102.66;10634481;27;19930;-65
2022/03/22 10:19:20;;;;;;;;;;;;;;;13.21;62.03;103099.03;10641603;27;19927;-64
2022/03/22 10:24:43;;;;;;;;;;;;;;;13.42;59.44;103103.41;10643799;27;19918;-63
2022/03/22 10:30:08;;;;;;;;;;;;;;;13.49;61.41;103092.59;10644493;27;19963;-63
2022/03/22 10:35:31;;;;;;;;;;;;;;;13.62;60.18;103090.34;10650284;27;20296;-64
2022/03/22 10:40:53;;;;;;;;;;;;;;;13.89;59.63;103097.06;10640906;27;19919;-64
2022/03/22 10:46:16;;;;;;;;;;;;;;;13.89;60.80;103094.44;10649829;27;20370;-64
2022/03/22 10:51:45;;;;;;;;;;;;;;;14.04;59.97;103094.66;10638544;27;19919;-64
2022/03/22 10:57:08;;;;;;;;;;;;;;;14.20;60.19;103090.47;10640817;27;19923;-63
2022/03/22 11:02:36;;;;;;;;;;;;;;;14.25;58.20;103082.41;10642014;27;19941;-63
2022/03/22 11:07:58;;;;;;;;;;;;;;;14.47;60.77;103091.91;10659284;27;19919;-63
2022/03/22 11:13:20;;;;;;;;;;;;;;;14.47;60.94;103090.13;10647804;27;19922;-63
2022/03/22 11:18:42;;;;;;;;;;;;;;;14.52;60.11;103085.53;10640419;27;19920;-63
2022/03/22 11:24:03;;;;;;;;;;;;;;;14.86;59.18;103083.03;10649309;27;19926;-63
2022/03/22 11:29:25;;;;;;;;;;;;;;;15.01;59.29;103074.44;10636717;27;19923;-64
2022/03/22 11:34:47;;;;;;;;;;;;;;;15.07;59.21;103076.78;10611566;27;19926;-64
2022/03/22 11:45:59;;;;;;;;;;;;;;;15.47;57.72;103060.84;10618250;27;19919;-65
2022/03/22 11:51:22;;;;;;;;;;;;;;;15.60;56.90;103057.53;10658276;27;20035;-64
2022/03/22 11:56:45;;;;;;;;;;;;;;;15.78;58.66;103059.25;10622375;27;19919;-63
2022/03/22 12:02:12;;;;;;;;;;;;;;;16.05;100.00;103062.22;10637696;27;19919;-64
2022/03/22 12:07:36;;;;;;;;;;;;;;;-139.34;100.00;63888.56;10618595;27;19923;-64
2022/03/22 12:12:58;;;;;;;;;;;;;;;-139.34;100.00;63888.56;10621799;27;19919;-64
2022/03/22 12:18:20;;;;;;;;;;;;;;;-139.34;100.00;63888.56;10611419;27;20014;-64
2022/03/22 12:23:43;;;;;;;;;;;;;;;-139.34;100.00;63888.56;10650634;27;19918;-62
2022/03/22 12:29:05;;;;;;;;;;;;;;;-139.34;100.00;63888.56;10647130;27;19924;-65
2022/03/22 12:34:26;;;;;;;;;;;;;;;-139.34;100.00;63888.56;10608065;27;19927;-63
2022/03/22 12:39:48;;;;;;;;;;;;;;;-139.34;100.00;63888.56;10636402;27;20287;-65
2022/03/22 12:45:20;;;;;;;;;;;;;;;-139.34;100.00;63888.56;10645364;27;19982;-64
2022/03/22 12:50:41;;;;;;;;;;;;;;;-139.34;100.00;63888.56;10611395;27;19923;-64
2022/03/22 12:56:12;;;;;;;;;;;;;;;-139.34;100.00;63888.56;10597732;27;19926;-64
2022/03/22 13:01:38;;;;;;;;;;;;;;;-139.34;100.00;63888.56;10612813;27;19925;-64
2022/03/22 13:07:01;;;;;;;;;;;;;;;-139.34;100.00;63888.56;10620100;27;20313;-64
2022/03/22 13:12:23;;;;;;;;;;;;;;;-139.34;100.00;63888.56;10623064;27;19986;-65
2022/03/22 13:17:46;;;;;;;;;;;;;;;-139.34;100.00;63888.56;10619701;27;19919;-65
2022/03/22 13:23:12;;;;;;;;;;;;;;;-139.34;100.00;63888.56;10603235;27;19927;-64
2022/03/22 13:28:34;;;;;;;;;;;;;;;-139.34;100.00;63888.56;10643489;27;19930;-64
2022/03/22 13:33:55;;;;;;;;;;;;;;;-139.34;100.00;63888.56;10634611;27;20402;-63
2022/03/22 13:39:24;;;;;;;;;;;;;;;-139.34;100.00;63888.56;10644693;27;19922;-64
2022/03/22 13:44:50;;;;;;;;;;;;;;;-139.34;100.00;63888.56;10645284;27;19923;-69
2022/03/22 13:50:12;;;;;;;;;;;;;;;-139.34;100.00;63888.56;10634548;27;19937;-70
2022/03/22 13:55:35;;;;;;;;;;;;;;;-139.34;100.00;63888.56;10646918;27;20014;-71
2022/03/22 14:00:56;;;;;;;;;;;;;;;-139.34;100.00;63888.56;10629028;27;19926;-71
2022/03/22 14:06:18;;;;;;;;;;;;;;;-139.34;100.00;63888.56;10635958;27;19943;-70
2022/03/22 14:11:43;;;;;;;;;;;;;;;-139.34;100.00;63888.56;10642042;27;20425;-71
2022/03/22 14:17:04;;;;;;;;;;;;;;;-139.34;100.00;63888.56;10634786;27;20454;-68
2022/03/22 14:22:30;;;;;;;;;;;;;;;-139.34;100.00;63888.56;10631400;27;19954;-64
2022/03/22 14:27:53;;;;;;;;;;;;;;;-139.34;100.00;63888.56;10617604;27;20538;-67
2022/03/22 14:33:15;;;;;;;;;;;;;;;-139.34;100.00;63888.56;10619760;27;20434;-68
2022/03/22 14:38:36;;;;;;;;;;;;;;;-139.34;100.00;63888.56;10619676;27;19972;-67
2022/03/22 14:43:58;;;;;;;;;;;;;;;-139.34;100.00;63888.56;10610472;27;19923;-65
2022/03/22 14:49:21;;;;;;;;;;;;;;;-139.34;100.00;63888.56;10636586;27;19919;-65
2022/03/22 14:54:42;;;;;;;;;;;;;;;-139.34;100.00;63888.56;10650259;27;20383;-65
2022/03/22 15:00:07;;;;;;;;;;;;;;;-139.34;100.00;63888.56;10624993;27;19930;-67
2022/03/22 15:05:34;;;;;;;;;;;;;;;-139.34;100.00;63888.56;10624657;27;19933;-66
2022/03/22 15:10:56;;;;;;;;;;;;;;;-139.34;100.00;63888.56;10620303;27;19930;-65
2022/03/22 15:16:18;;;;;;;;;;;;;;;-139.34;100.00;63888.56;10641869;27;19923;-66
2022/03/22 15:21:40;;;;;;;;;;;;;;;-139.34;100.00;63888.56;10634454;27;20358;-65
2022/03/22 15:27:02;;;;;;;;;;;;;;;-139.34;100.00;63888.56;10598891;27;20537;-66
2022/03/22 15:32:23;;;;;;;;;;;;;;;-139.34;100.00;63888.56;10612443;27;19923;-65
2022/03/22 15:37:46;;;;;;;;;;;;;;;-139.34;100.00;63888.56;10636610;27;19930;-65
2022/03/22 15:43:08;;;;;;;;;;;;;;;-139.34;100.00;63888.56;10629193;27;19923;-66
2022/03/22 15:48:29;;;;;;;;;;;;;;;-139.34;100.00;63888.56;10613314;27;20406;-65
2022/03/22 15:53:51;;;;;;;;;;;;;;;-139.34;100.00;63888.56;10616191;27;19927;-66
2022/03/22 15:59:16;;;;;;;;;;;;;;;-139.34;100.00;63888.56;10597540;27;19919;-65
2022/03/22 16:04:38;;;;;;;;;;;;;;;-139.34;100.00;63888.56;10602722;27;19920;-65
2022/03/22 16:09:59;;;;;;;;;;;;;;;-139.34;100.00;63888.56;10621904;27;19930;-65
2022/03/22 16:15:22;;;;;;;;;;;;;;;-139.34;100.00;63888.56;10610206;27;20364;-65
2022/03/22 16:20:43;;;;;;;;;;;;;;;-139.34;100.00;63888.56;10616404;27;20252;-64
2022/03/22 16:26:08;;;;;;;;;;;;;;;-139.34;100.00;63888.56;10623646;27;20009;-65
2022/03/22 16:31:30;;;;;;;;;;;;;;;-139.34;100.00;63888.56;10619034;27;19927;-65
2022/03/22 16:36:52;;;;;;;;;;;;;;;-139.34;100.00;63888.56;10605376;27;20427;-65
2022/03/22 16:42:14;;;;;;;;;;;;;;;-139.34;100.00;63888.56;10620354;27;20678;-67
2022/03/22 16:47:36;;;;;;;;;;;;;;;-139.34;100.00;63888.56;10617280;27;19925;-64
2022/03/22 16:52:57;;;;;;;;;;;;;;;-139.34;100.00;63888.56;10612610;27;19961;-64
2022/03/22 16:58:19;;;;;;;;;;;;;;;-139.34;100.00;63888.56;10624160;27;19924;-66
2022/03/22 17:03:41;;;;;;;;;;;;;;;-139.34;100.00;63888.56;10627494;27;19919;-64
2022/03/22 17:09:02;;;;;;;;;;;;;;;-139.34;100.00;63888.56;10629635;27;19973;-64
2022/03/22 17:14:24;;;;;;;;;;;;;;;-139.34;100.00;63888.56;10611096;27;19951;-66
2022/03/22 17:19:47;;;;;;;;;;;;;;;-139.34;100.00;63888.56;10620900;27;19925;-65
2022/03/22 17:25:08;;;;;;;;;;;;;;;-139.34;100.00;63888.56;10616989;27;19919;-66
2022/03/22 17:30:32;;;;;;;;;;;;;;;-139.34;100.00;63888.56;10626062;27;19919;-65
2022/03/22 17:35:55;;;;;;;;;;;;;;;-139.34;100.00;63888.56;10588121;27;19930;-65
2022/03/22 17:41:16;;;;;;;;;;;;;;;-139.34;100.00;63888.56;10616120;27;20406;-64
2022/03/22 17:46:38;;;;;;;;;;;;;;;-139.34;100.00;63888.56;10609254;27;19926;-64
2022/03/22 17:52:00;;;;;;;;;;;;;;;-139.34;100.00;63888.56;10596057;28;20474;-64
2022/03/22 17:57:21;;;;;;;;;;;;;;;-139.34;100.00;63888.56;10615858;27;19926;-63
2022/03/22 18:02:44;;;;;;;;;;;;;;;-139.34;100.00;63888.56;10601337;27;19923;-64
2022/03/22 18:08:07;;;;;;;;;;;;;;;-139.34;100.00;63888.56;10622294;27;19926;-64
2022/03/22 18:13:29;;;;;;;;;;;;;;;-139.34;100.00;63888.56;10621163;27;19923;-64
2022/03/22 18:18:50;;;;;;;;;;;;;;;-139.34;100.00;63888.56;10595292;28;19919;-64
2022/03/22 18:24:12;;;;;;;;;;;;;;;-139.34;100.00;63888.56;10635631;27;20420;-62
2022/03/22 18:29:33;;;;;;;;;;;;;;;-139.34;100.00;63888.56;10637453;27;19926;-62
2022/03/22 18:34:56;;;;;;;;;;;;;;;-139.34;100.00;63888.56;10612216;27;20308;-62
2022/03/22 18:40:17;;;;;;;;;;;;;;;-139.34;100.00;63888.56;10614588;27;19930;-62
2022/03/22 18:45:39;;;;;;;;;;;;;;;-139.34;100.00;63888.56;10637678;27;19926;-63
2022/03/22 18:51:00;;;;;;;;;;;;;;;-139.34;100.00;63888.56;10626799;27;19919;-62
2022/03/22 18:56:22;;;;;;;;;;;;;;;-139.34;100.00;63888.56;10631229;27;19969;-63
2022/03/22 19:01:43;;;;;;;;;;;;;;;-139.34;100.00;63888.56;10608458;27;19923;-61
2022/03/22 19:07:05;;;;;;;;;;;;;;;-139.34;100.00;63888.56;10618073;27;19919;-63
2022/03/22 19:12:27;;;;;;;;;;;;;;;-139.34;100.00;63888.56;10634740;27;19923;-63
2022/03/22 19:17:48;;;;;;;;;;;;;;;-139.34;100.00;63888.56;10618863;27;19927;-63
2022/03/22 19:23:10;;;;;;;;;;;;;;;-139.34;100.00;63888.56;10625262;27;19923;-63
2022/03/22 19:28:31;;;;;;;;;;;;;;;-139.34;100.00;63888.56;10592163;27;19930;-62
2022/03/22 19:33:53;;;;;;;;;;;;;;;-139.34;100.00;63888.56;10589201;27;19926;-63
2022/03/22 19:39:14;;;;;;;;;;;;;;;-139.34;100.00;63888.56;10594168;27;19923;-63
2022/03/22 19:44:36;;;;;;;;;;;;;;;-139.34;100.00;63888.56;10600912;27;20399;-62
2022/03/22 19:50:10;;;;;;;;;;;;;;;-139.34;100.00;63888.56;10604002;27;19923;-63
2022/03/22 19:55:34;;;;;;;;;;;;;;;-139.34;100.00;63888.56;10596035;27;20379;-62
2022/03/22 20:00:58;;;;;;;;;;;;;;;-139.34;100.00;63888.56;10598475;27;19930;-63
2022/03/22 20:06:21;;;;;;;;;;;;;;;-139.34;100.00;63888.56;10612882;27;20014;-62
2022/03/22 20:11:42;;;;;;;;;;;;;;;-139.34;100.00;63888.56;10579623;27;20475;-62
2022/03/22 20:17:05;;;;;;;;;;;;;;;-139.34;100.00;63888.56;10605165;27;19953;-63
2022/03/22 20:22:28;;;;;;;;;;;;;;;-139.34;100.00;63888.56;10588125;27;19928;-63
2022/03/22 20:27:49;;;;;;;;;;;;;;;-139.34;100.00;63888.56;10604877;27;19926;-63
2022/03/22 20:33:11;;;;;;;;;;;;;;;-139.34;100.00;63888.56;10595548;27;19919;-63
2022/03/22 20:38:33;;;;;;;;;;;;;;;-139.34;100.00;63888.56;10619065;27;20564;-63
2022/03/22 20:43:54;;;;;;;;;;;;;;;-139.34;100.00;63888.56;10623977;27;19925;-65
2022/03/22 20:49:16;;;;;;;;;;;;;;;-139.34;100.00;63888.56;10640740;27;19923;-62
2022/03/22 20:54:37;;;;;;;;;;;;;;;-139.34;100.00;63888.56;10596241;27;19935;-62
2022/03/22 21:00:00;;;;;;;;;;;;;;;-139.34;100.00;63888.56;10607713;27;19926;-63
2022/03/22 21:05:22;;;;;;;;;;;;;;;-139.34;100.00;63888.56;10561673;28;20369;-62
2022/03/22 21:10:45;;;;;;;;;;;;;;;-139.34;100.00;63888.56;10575146;28;19925;-63
2022/03/22 21:16:06;;;;;;;;;;;;;;;-139.34;100.00;63888.56;10561247;28;19924;-63
2022/03/22 21:21:29;;;;;;;;;;;;;;;-139.34;100.00;63888.56;10611694;27;19930;-63
2022/03/22 21:26:51;;;;;;;;;;;;;;;-139.34;100.00;63888.56;10591512;27;19920;-63
2022/03/22 21:32:13;;;;;;;;;;;;;;;-139.34;100.00;63888.56;10611770;27;20291;-63
2022/03/22 21:37:35;;;;;;;;;;;;;;;-139.34;100.00;63888.56;10598896;27;19919;-63
2022/03/22 21:42:56;;;;;;;;;;;;;;;-139.34;100.00;63888.56;10587101;27;19924;-64
2022/03/22 21:48:18;;;;;;;;;;;;;;;-139.34;100.00;63888.56;10553530;28;19935;-63
2022/03/22 21:53:40;;;;;;;;;;;;;;;-139.34;100.00;63888.56;10601844;27;19919;-64
2022/03/22 21:59:02;;;;;;;;;;;;;;;-139.34;100.00;63888.56;10598644;28;19923;-62
2022/03/22 22:04:23;;;;;;;;;;;;;;;-139.34;100.00;63888.56;10593767;28;20401;-63
2022/03/22 22:09:46;;;;;;;;;;;;;;;-139.34;100.00;63888.56;10591295;28;19920;-63
2022/03/22 22:15:07;;;;;;;;;;;;;;;-139.34;100.00;63888.56;10588524;27;19923;-63
2022/03/22 22:20:32;;;;;;;;;;;;;;;-139.34;100.00;63888.56;10659999;27;19925;-63
2022/03/22 22:25:54;;;;;;;;;;;;;;;-139.34;100.00;63888.56;10600535;27;19919;-63
2022/03/22 22:31:15;;;;;;;;;;;;;;;-139.34;100.00;63888.56;10576531;28;20012;-62
2022/03/22 22:36:37;;;;;;;;;;;;;;;-139.34;100.00;63888.56;10634674;27;20403;-63
2022/03/22 22:41:59;;;;;;;;;;;;;;;-139.34;100.00;63888.56;10641055;27;19919;-63
2022/03/22 22:47:20;;;;;;;;;;;;;;;-139.34;100.00;63888.56;10617667;27;20183;-63
2022/03/22 22:52:42;;;;;;;;;;;;;;;-139.34;100.00;63888.56;10582350;27;19923;-63
2022/03/22 22:58:03;;;;;;;;;;;;;;;-139.34;100.00;63888.56;10588708;27;19923;-63
2022/03/22 23:03:32;;;;;;;;;;;;;;;-139.34;100.00;63888.56;10616743;27;19946;-63
2022/03/22 23:14:34;;;;;;;;;;;;;;;-139.34;100.00;63888.56;10580197;28;19927;-63
2022/03/22 23:19:55;;;;;;;;;;;;;;;-139.34;100.00;63888.56;10593840;27;19919;-63
2022/03/22 23:25:17;;;;;;;;;;;;;;;-139.34;100.00;63888.56;10610967;27;19920;-63
2022/03/22 23:30:39;;;;;;;;;;;;;;;-139.34;100.00;63888.56;10595955;27;19957;-62
2022/03/22 23:36:01;;;;;;;;;;;;;;;-139.34;100.00;63888.56;10657289;27;20018;-63
2022/03/22 23:41:22;;;;;;;;;;;;;;;-139.34;100.00;63888.56;10605299;27;20327;-63
2022/03/22 23:46:44;;;;;;;;;;;;;;;-139.34;100.00;63888.56;10621103;27;19926;-63
2022/03/22 23:52:06;;;;;;;;;;;;;;;-139.34;100.00;63888.56;10629033;27;19927;-63
2022/03/22 23:57:28;;;;;;;;;;;;;;;-139.34;100.00;63888.56;10611227;27;19924;-63
